Time;durP1;ratioP1;P1;durP2;ratioP2;P2;SDS_P1;SDS_P2;PMS_P1;PMS_P2;Temp;Humidity;BMP_temperature;BMP_pressure;BME280_temperature;BME280_humidity;BME280_pressure;Samples;Min_cycle;Max_cycle;Signal;HPM_P1;HPM_P2
2022/11/19 00:00:47;;;;;;;12.18;6.22;;;;;;;;;;4899022;29;20179;-82
2022/11/19 00:03:18;;;;;;;10.70;6.70;;;;;;;;;;4911018;29;20024;-82
2022/11/19 00:05:45;;;;;;;10.57;6.35;;;;;;;;;;4899667;29;20027;-83
2022/11/19 00:08:16;;;;;;;12.18;6.88;;;;;;;;;;4895028;29;20060;-82
2022/11/19 00:10:42;;;;;;;13.02;6.90;;;;;;;;;;4913192;29;20172;-82
2022/11/19 00:13:08;;;;;;;10.45;6.15;;;;;;;;;;4908598;29;20512;-82
2022/11/19 00:15:34;;;;;;;10.43;6.80;;;;;;;;;;4896944;29;20107;-83
2022/11/19 00:18:00;;;;;;;12.38;7.07;;;;;;;;;;4896665;29;20078;-83
2022/11/19 00:20:27;;;;;;;11.45;6.88;;;;;;;;;;4895689;29;20477;-82
2022/11/19 00:22:54;;;;;;;11.70;6.38;;;;;;;;;;4910416;29;20044;-82
2022/11/19 00:25:20;;;;;;;10.48;5.80;;;;;;;;;;4904927;29;20078;-83
2022/11/19 00:27:46;;;;;;;12.05;7.03;;;;;;;;;;4907586;29;20063;-83
2022/11/19 00:30:12;;;;;;;12.55;6.85;;;;;;;;;;4906072;29;20121;-83
2022/11/19 00:32:37;;;;;;;12.45;7.20;;;;;;;;;;4899409;29;20481;-83
2022/11/19 00:35:03;;;;;;;11.80;6.97;;;;;;;;;;4895613;29;20040;-83
2022/11/19 00:37:29;;;;;;;11.75;6.70;;;;;;;;;;4909837;29;20024;-83
2022/11/19 00:39:54;;;;;;;12.13;7.55;;;;;;;;;;4897795;29;20052;-83
2022/11/19 00:42:20;;;;;;;11.80;6.95;;;;;;;;;;4892104;29;20381;-83
2022/11/19 00:44:45;;;;;;;11.57;6.97;;;;;;;;;;4909006;29;20055;-83
2022/11/19 00:47:11;;;;;;;14.23;6.95;;;;;;;;;;4913647;29;20078;-82
2022/11/19 00:49:36;;;;;;;11.95;7.97;;;;;;;;;;4909553;29;20043;-82
2022/11/19 00:52:02;;;;;;;11.85;7.30;;;;;;;;;;4898948;29;20448;-83
2022/11/19 00:54:27;;;;;;;12.55;7.28;;;;;;;;;;4912025;29;20035;-83
2022/11/19 00:56:52;;;;;;;11.80;6.57;;;;;;;;;;4908648;29;20393;-83
2022/11/19 00:59:18;;;;;;;11.95;6.80;;;;;;;;;;4895686;29;20366;-82
2022/11/19 01:01:43;;;;;;;11.43;6.80;;;;;;;;;;4913149;29;20032;-83
2022/11/19 01:04:09;;;;;;;12.77;7.45;;;;;;;;;;4909257;29;20054;-82
2022/11/19 01:06:34;;;;;;;11.60;6.95;;;;;;;;;;4905854;29;20032;-83
2022/11/19 01:08:59;;;;;;;14.95;7.22;;;;;;;;;;4898008;29;20159;-83
2022/11/19 01:11:31;;;;;;;12.40;6.90;;;;;;;;;;4909010;29;20429;-83
2022/11/19 01:14:00;;;;;;;11.10;6.65;;;;;;;;;;4890576;29;20172;-83
2022/11/19 01:16:29;;;;;;;10.93;6.55;;;;;;;;;;4905480;29;20027;-83
2022/11/19 01:18:54;;;;;;;10.80;6.55;;;;;;;;;;4910227;29;20017;-83
2022/11/19 01:21:22;;;;;;;11.07;6.82;;;;;;;;;;4908697;29;20075;-83
2022/11/19 01:23:47;;;;;;;10.68;6.30;;;;;;;;;;4915757;29;20510;-82
2022/11/19 01:26:19;;;;;;;11.90;7.00;;;;;;;;;;4894229;29;20055;-83
2022/11/19 01:28:47;;;;;;;11.68;7.32;;;;;;;;;;4893801;29;20051;-83
2022/11/19 01:31:21;;;;;;;11.35;6.78;;;;;;;;;;4910895;29;20028;-83
2022/11/19 01:33:47;;;;;;;11.75;7.28;;;;;;;;;;4909580;29;20467;-83
2022/11/19 01:36:24;;;;;;;12.60;7.32;;;;;;;;;;4908267;29;20024;-82
2022/11/19 01:38:50;;;;;;;11.02;6.88;;;;;;;;;;4908872;29;20059;-84
2022/11/19 01:41:31;;;;;;;14.52;7.65;;;;;;;;;;4914251;29;20033;-83
2022/11/19 01:44:26;;;;;;;11.63;6.47;;;;;;;;;;4906698;29;20028;-83
2022/11/19 01:46:52;;;;;;;12.35;7.60;;;;;;;;;;4897802;29;20024;-83
2022/11/19 01:49:19;;;;;;;12.25;7.38;;;;;;;;;;4908633;29;20392;-83
2022/11/19 01:51:50;;;;;;;11.85;6.72;;;;;;;;;;4913053;29;20036;-83
2022/11/19 01:54:29;;;;;;;12.52;7.28;;;;;;;;;;4910042;29;20024;-83
2022/11/19 01:56:56;;;;;;;12.07;6.55;;;;;;;;;;4911113;29;20551;-83
2022/11/19 01:59:22;;;;;;;11.65;6.78;;;;;;;;;;4907747;29;20024;-83
2022/11/19 02:01:47;;;;;;;12.15;7.32;;;;;;;;;;4895165;29;20084;-82
2022/11/19 02:04:15;;;;;;;12.00;7.28;;;;;;;;;;4912054;29;20033;-84
2022/11/19 02:06:41;;;;;;;12.38;8.07;;;;;;;;;;4903418;29;20377;-84
2022/11/19 02:09:07;;;;;;;10.80;6.82;;;;;;;;;;4905294;29;20028;-83
2022/11/19 02:11:53;;;;;;;12.13;7.00;;;;;;;;;;4904260;29;20036;-83
2022/11/19 02:14:44;;;;;;;13.57;7.35;;;;;;;;;;4911365;29;20362;-83
2022/11/19 02:17:34;;;;;;;11.85;7.22;;;;;;;;;;4907921;29;20369;-83
2022/11/19 02:20:37;;;;;;;11.30;6.57;;;;;;;;;;4901726;29;20160;-83
2022/11/19 02:23:29;;;;;;;12.17;7.17;;;;;;;;;;4910861;29;20028;-83
2022/11/19 02:26:26;;;;;;;12.77;7.00;;;;;;;;;;4909696;29;20107;-83
2022/11/19 02:29:07;;;;;;;13.20;7.07;;;;;;;;;;4904702;29;20040;-83
2022/11/19 02:31:47;;;;;;;11.57;6.95;;;;;;;;;;4906875;29;20228;-83
2022/11/19 02:34:15;;;;;;;12.75;6.90;;;;;;;;;;4908878;29;20056;-83
2022/11/19 02:36:54;;;;;;;13.55;7.45;;;;;;;;;;4908571;29;20757;-83
2022/11/19 02:39:29;;;;;;;14.57;6.72;;;;;;;;;;4907383;29;20052;-83
2022/11/19 02:42:06;;;;;;;13.27;7.40;;;;;;;;;;4907237;29;20032;-83
2022/11/19 02:44:58;;;;;;;13.93;7.63;;;;;;;;;;4891604;29;20055;-83
2022/11/19 02:47:30;;;;;;;12.32;7.30;;;;;;;;;;4906662;29;20042;-84
2022/11/19 02:50:00;;;;;;;13.30;8.02;;;;;;;;;;4906248;29;20028;-83
2022/11/19 02:52:27;;;;;;;13.88;8.10;;;;;;;;;;4910463;29;20128;-84
2022/11/19 02:54:52;;;;;;;14.25;7.75;;;;;;;;;;4895588;29;20036;-83
2022/11/19 02:57:17;;;;;;;14.18;7.68;;;;;;;;;;4907370;29;20360;-83
2022/11/19 03:05:25;;;;;;;13.68;7.55;;;;;;;;;;4912408;29;20068;-83
2022/11/19 03:07:51;;;;;;;14.05;7.78;;;;;;;;;;4901794;29;20047;-83
2022/11/19 03:10:18;;;;;;;15.05;8.30;;;;;;;;;;4901202;29;20032;-83
2022/11/19 03:12:50;;;;;;;15.43;8.40;;;;;;;;;;4909370;29;20039;-84
2022/11/19 03:18:36;;;;;;;14.75;8.68;;;;;;;;;;4910014;29;20076;-83
2022/11/19 03:21:19;;;;;;;16.30;8.18;;;;;;;;;;4910850;29;20043;-83
2022/11/19 03:23:54;;;;;;;13.68;7.93;;;;;;;;;;4913383;29;20024;-83
2022/11/19 03:26:26;;;;;;;15.35;8.65;;;;;;;;;;4913178;29;20251;-84
2022/11/19 03:28:55;;;;;;;14.95;8.68;;;;;;;;;;4894639;29;20474;-83
2022/11/19 03:31:24;;;;;;;15.82;8.73;;;;;;;;;;4896069;29;20036;-83
2022/11/19 03:33:54;;;;;;;16.27;8.52;;;;;;;;;;4894704;29;20191;-82
2022/11/19 03:36:24;;;;;;;14.65;8.25;;;;;;;;;;4893764;29;20032;-83
2022/11/19 03:38:54;;;;;;;17.25;9.85;;;;;;;;;;4915518;29;20048;-83
2022/11/19 03:41:23;;;;;;;15.77;8.73;;;;;;;;;;4911505;29;20079;-84
2022/11/19 03:44:05;;;;;;;15.70;9.25;;;;;;;;;;4909271;29;20035;-83
2022/11/19 03:46:34;;;;;;;15.32;8.90;;;;;;;;;;4906999;29;20449;-83
2022/11/19 03:49:02;;;;;;;14.68;8.57;;;;;;;;;;4908626;29;20032;-83
2022/11/19 03:51:38;;;;;;;17.08;9.18;;;;;;;;;;4909765;29;20433;-83
2022/11/19 03:54:04;;;;;;;18.35;9.75;;;;;;;;;;4905986;29;20042;-84
2022/11/19 03:56:33;;;;;;;16.52;10.23;;;;;;;;;;4912506;29;20149;-83
2022/11/19 03:58:59;;;;;;;15.50;9.90;;;;;;;;;;4911737;29;20119;-83
2022/11/19 04:01:24;;;;;;;16.90;9.60;;;;;;;;;;4906934;29;20123;-84
2022/11/19 04:06:34;;;;;;;17.52;9.82;;;;;;;;;;4907453;29;20054;-83
2022/11/19 04:08:59;;;;;;;16.75;9.75;;;;;;;;;;4915823;29;20115;-83
2022/11/19 04:11:24;;;;;;;17.95;9.82;;;;;;;;;;4911237;29;20120;-83
2022/11/19 04:13:50;;;;;;;18.33;10.30;;;;;;;;;;4910224;29;20035;-83
2022/11/19 04:16:15;;;;;;;18.85;10.38;;;;;;;;;;4910320;29;20393;-83
2022/11/19 04:18:40;;;;;;;16.13;9.68;;;;;;;;;;4907682;29;20027;-84
2022/11/19 04:21:09;;;;;;;17.70;9.70;;;;;;;;;;4910607;29;20032;-82
2022/11/19 04:23:34;;;;;;;16.60;9.98;;;;;;;;;;4906746;29;20107;-83
2022/11/19 04:25:59;;;;;;;19.73;10.02;;;;;;;;;;4892313;29;20126;-83
2022/11/19 04:28:25;;;;;;;17.00;9.93;;;;;;;;;;4905765;29;20118;-83
2022/11/19 04:30:50;;;;;;;17.55;10.25;;;;;;;;;;4902204;29;20032;-83
2022/11/19 04:33:16;;;;;;;17.40;10.05;;;;;;;;;;4908158;29;20032;-84
2022/11/19 04:35:44;;;;;;;17.73;10.10;;;;;;;;;;4895864;29;20028;-83
2022/11/19 04:38:09;;;;;;;17.45;10.00;;;;;;;;;;4911342;29;20477;-83
2022/11/19 04:40:34;;;;;;;18.35;10.60;;;;;;;;;;4905490;29;20039;-84
2022/11/19 04:43:00;;;;;;;17.33;9.85;;;;;;;;;;4906250;29;20035;-83
2022/11/19 04:45:25;;;;;;;17.85;9.98;;;;;;;;;;4909665;29;20155;-83
2022/11/19 04:47:50;;;;;;;18.15;11.23;;;;;;;;;;4896682;29;20123;-83
2022/11/19 04:50:16;;;;;;;19.10;10.25;;;;;;;;;;4907204;29;20075;-83
2022/11/19 04:52:41;;;;;;;17.90;10.30;;;;;;;;;;4901722;29;20028;-83
2022/11/19 04:55:07;;;;;;;17.65;9.93;;;;;;;;;;4891636;29;20032;-83
2022/11/19 04:57:32;;;;;;;20.05;11.25;;;;;;;;;;4907979;29;20405;-83
2022/11/19 04:59:58;;;;;;;17.60;10.00;;;;;;;;;;4911377;29;20031;-84
2022/11/19 05:02:23;;;;;;;17.80;10.30;;;;;;;;;;4910236;29;21107;-83
2022/11/19 05:04:48;;;;;;;17.00;9.80;;;;;;;;;;4895336;29;20028;-83
2022/11/19 05:07:14;;;;;;;21.58;10.88;;;;;;;;;;4907269;29;20020;-83
2022/11/19 05:09:39;;;;;;;19.27;10.43;;;;;;;;;;4912443;29;20512;-83
2022/11/19 05:12:05;;;;;;;18.17;10.18;;;;;;;;;;4916905;29;20020;-83
2022/11/19 05:14:30;;;;;;;15.90;9.52;;;;;;;;;;4909720;29;20028;-83
2022/11/19 05:16:56;;;;;;;18.88;10.15;;;;;;;;;;4909279;29;20035;-83
2022/11/19 05:19:21;;;;;;;20.95;11.85;;;;;;;;;;4890436;29;20028;-83
2022/11/19 05:21:46;;;;;;;18.88;10.95;;;;;;;;;;4897800;29;20024;-83
2022/11/19 05:24:12;;;;;;;21.17;11.55;;;;;;;;;;4890131;29;20032;-84
2022/11/19 05:26:37;;;;;;;18.33;10.98;;;;;;;;;;4894802;29;20034;-83
2022/11/19 05:29:02;;;;;;;20.58;10.55;;;;;;;;;;4889894;29;20445;-84
2022/11/19 05:31:29;;;;;;;20.48;11.13;;;;;;;;;;4893347;29;20039;-84
2022/11/19 05:33:54;;;;;;;18.20;10.63;;;;;;;;;;4905667;29;20030;-83
2022/11/19 05:36:20;;;;;;;20.38;11.57;;;;;;;;;;4902934;29;20477;-83
2022/11/19 05:38:45;;;;;;;17.98;10.57;;;;;;;;;;4904719;29;20044;-82
2022/11/19 05:41:10;;;;;;;19.15;10.88;;;;;;;;;;4894349;29;20491;-83
2022/11/19 05:43:36;;;;;;;18.98;11.00;;;;;;;;;;4911733;29;20039;-84
2022/11/19 05:46:02;;;;;;;21.90;11.77;;;;;;;;;;4910558;29;20032;-83
2022/11/19 05:48:28;;;;;;;20.25;11.85;;;;;;;;;;4908637;29;20072;-84
2022/11/19 05:50:53;;;;;;;21.00;11.73;;;;;;;;;;4901486;29;20083;-83
2022/11/19 05:53:19;;;;;;;18.92;10.98;;;;;;;;;;4905606;29;20504;-83
2022/11/19 05:55:44;;;;;;;20.52;11.13;;;;;;;;;;4910205;29;20062;-83
2022/11/19 05:58:09;;;;;;;20.88;10.88;;;;;;;;;;4910403;29;20027;-84
2022/11/19 06:00:35;;;;;;;20.65;11.93;;;;;;;;;;4902666;29;20040;-84
2022/11/19 06:03:00;;;;;;;21.98;11.63;;;;;;;;;;4900898;29;20114;-83
2022/11/19 06:05:26;;;;;;;24.08;11.75;;;;;;;;;;4911777;29;20035;-83
2022/11/19 06:07:51;;;;;;;21.33;11.15;;;;;;;;;;4909788;29;20036;-83
2022/11/19 06:10:17;;;;;;;23.38;12.25;;;;;;;;;;4898220;29;20123;-83
2022/11/19 06:12:45;;;;;;;21.55;11.82;;;;;;;;;;4914425;29;20043;-83
2022/11/19 06:15:10;;;;;;;20.48;11.88;;;;;;;;;;4890095;29;20035;-84
2022/11/19 06:17:36;;;;;;;19.52;11.18;;;;;;;;;;4908288;29;20040;-83
2022/11/19 06:20:01;;;;;;;21.75;12.40;;;;;;;;;;4903839;29;20411;-83
2022/11/19 06:22:26;;;;;;;21.23;11.38;;;;;;;;;;4909708;29;20071;-83
2022/11/19 06:24:52;;;;;;;22.88;12.30;;;;;;;;;;4909588;29;20027;-83
2022/11/19 06:27:17;;;;;;;21.48;12.23;;;;;;;;;;4905967;29;20080;-84
2022/11/19 06:29:43;;;;;;;20.63;11.32;;;;;;;;;;4910354;29;20115;-83
2022/11/19 06:32:08;;;;;;;20.33;11.35;;;;;;;;;;4914726;29;20032;-83
2022/11/19 06:34:33;;;;;;;22.73;12.65;;;;;;;;;;4903043;29;20036;-83
2022/11/19 06:36:59;;;;;;;20.10;11.40;;;;;;;;;;4890217;29;20317;-83
2022/11/19 06:39:24;;;;;;;21.45;11.90;;;;;;;;;;4909401;29;20048;-83
2022/11/19 06:41:50;;;;;;;21.35;11.80;;;;;;;;;;4906983;29;20030;-84
2022/11/19 06:44:16;;;;;;;20.42;11.48;;;;;;;;;;4908782;29;20059;-83
2022/11/19 06:46:41;;;;;;;18.98;11.15;;;;;;;;;;4910818;29;20097;-84
2022/11/19 06:49:08;;;;;;;21.98;11.77;;;;;;;;;;4890235;29;20044;-84
2022/11/19 06:51:33;;;;;;;20.08;10.93;;;;;;;;;;4911299;29;20036;-83
2022/11/19 06:53:59;;;;;;;21.27;11.75;;;;;;;;;;4899316;29;20436;-83
2022/11/19 06:56:24;;;;;;;21.55;12.00;;;;;;;;;;4911625;29;20136;-83
2022/11/19 06:58:50;;;;;;;24.33;13.18;;;;;;;;;;4911004;29;20669;-84
2022/11/19 07:01:15;;;;;;;22.48;11.90;;;;;;;;;;4909381;29;20044;-83
2022/11/19 07:03:41;;;;;;;20.50;11.45;;;;;;;;;;4888484;29;20051;-84
2022/11/19 07:06:06;;;;;;;22.75;12.40;;;;;;;;;;4905136;29;20414;-83
2022/11/19 07:08:34;;;;;;;21.27;11.75;;;;;;;;;;4909219;29;20079;-82
2022/11/19 07:11:00;;;;;;;22.58;11.98;;;;;;;;;;4900356;29;20527;-83
2022/11/19 07:13:55;;;;;;;23.73;11.32;;;;;;;;;;4908867;29;20067;-84
2022/11/19 07:16:10;;;;;;;21.08;11.80;;;;;;;;;;4908458;29;20028;-84
2022/11/19 07:18:36;;;;;;;21.63;11.98;;;;;;;;;;4899103;29;20027;-84
2022/11/19 07:21:01;;;;;;;20.95;11.73;;;;;;;;;;4908861;29;20038;-84
2022/11/19 07:23:26;;;;;;;21.33;11.70;;;;;;;;;;4903877;29;20064;-84
2022/11/19 07:25:52;;;;;;;22.42;11.80;;;;;;;;;;4908409;29;20040;-84
2022/11/19 07:28:17;;;;;;;18.88;11.02;;;;;;;;;;4903131;29;20036;-84
2022/11/19 07:30:42;;;;;;;23.52;12.02;;;;;;;;;;4904016;29;20029;-84
2022/11/19 07:33:08;;;;;;;22.30;11.98;;;;;;;;;;4906824;29;20092;-83
2022/11/19 07:35:33;;;;;;;20.48;10.98;;;;;;;;;;4906024;29;20032;-83
2022/11/19 07:37:58;;;;;;;20.23;11.43;;;;;;;;;;4902317;29;20042;-84
2022/11/19 07:40:24;;;;;;;20.90;11.48;;;;;;;;;;4906420;29;20497;-84
2022/11/19 07:42:52;;;;;;;19.73;10.63;;;;;;;;;;4911550;29;20036;-84
2022/11/19 07:45:20;;;;;;;18.10;10.45;;;;;;;;;;4920420;29;20028;-82
2022/11/19 07:47:45;;;;;;;20.95;11.13;;;;;;;;;;4907966;29;20032;-84
2022/11/19 07:50:11;;;;;;;21.70;11.25;;;;;;;;;;4916041;29;20073;-83
2022/11/19 07:52:36;;;;;;;18.65;10.70;;;;;;;;;;4910016;29;20474;-83
2022/11/19 07:55:04;;;;;;;19.63;10.85;;;;;;;;;;4910549;29;20048;-83
2022/11/19 07:57:30;;;;;;;22.77;11.98;;;;;;;;;;4912261;29;20024;-84
2022/11/19 07:59:55;;;;;;;18.90;10.35;;;;;;;;;;4915898;29;20032;-83
2022/11/19 08:02:21;;;;;;;21.38;11.88;;;;;;;;;;4898203;29;20032;-84
2022/11/19 08:04:46;;;;;;;18.70;10.38;;;;;;;;;;4909295;29;20039;-84
2022/11/19 08:07:11;;;;;;;21.40;10.80;;;;;;;;;;4902208;29;20036;-84
2022/11/19 08:09:37;;;;;;;17.48;10.13;;;;;;;;;;4911939;29;20030;-84
2022/11/19 08:12:02;;;;;;;20.88;10.45;;;;;;;;;;4907295;29;20159;-84
2022/11/19 08:14:27;;;;;;;20.65;10.30;;;;;;;;;;4915577;29;20044;-84
2022/11/19 08:19:37;;;;;;;20.33;9.85;;;;;;;;;;4913595;29;20031;-83
2022/11/19 08:22:02;;;;;;;17.13;9.75;;;;;;;;;;4914704;29;20032;-83
2022/11/19 08:24:28;;;;;;;17.90;10.43;;;;;;;;;;4916019;29;20028;-83
2022/11/19 08:26:53;;;;;;;18.13;10.02;;;;;;;;;;4916981;29;20024;-84
2022/11/19 08:29:22;;;;;;;19.75;10.77;;;;;;;;;;4901032;29;20024;-83
2022/11/19 08:31:48;;;;;;;19.25;10.77;;;;;;;;;;4916597;29;20515;-85
2022/11/19 08:34:14;;;;;;;17.88;10.48;;;;;;;;;;4914169;29;20028;-83
2022/11/19 08:36:40;;;;;;;19.45;10.57;;;;;;;;;;4911850;29;20040;-84
2022/11/19 08:39:05;;;;;;;18.63;10.40;;;;;;;;;;4909116;29;20051;-84
2022/11/19 08:44:16;;;;;;;20.25;11.25;;;;;;;;;;4908335;29;20444;-83
2022/11/19 08:46:42;;;;;;;17.23;9.68;;;;;;;;;;4912539;29;20035;-84
2022/11/19 08:49:08;;;;;;;18.65;10.35;;;;;;;;;;4914209;29;20024;-84
2022/11/19 08:51:33;;;;;;;19.17;10.32;;;;;;;;;;4914664;29;20039;-84
2022/11/19 08:53:59;;;;;;;19.25;10.00;;;;;;;;;;4909647;29;20036;-84
2022/11/19 08:56:24;;;;;;;18.88;10.57;;;;;;;;;;4913848;29;20034;-84
2022/11/19 08:58:51;;;;;;;17.67;9.98;;;;;;;;;;4904358;29;20573;-84
2022/11/19 09:01:18;;;;;;;19.80;11.20;;;;;;;;;;4899879;29;20035;-84
2022/11/19 09:03:44;;;;;;;18.65;10.00;;;;;;;;;;4915146;29;20374;-84
2022/11/19 09:06:10;;;;;;;19.77;10.32;;;;;;;;;;4910728;29;20028;-83
2022/11/19 09:08:36;;;;;;;18.75;10.40;;;;;;;;;;4913138;29;20063;-84
2022/11/19 09:11:06;;;;;;;17.08;9.98;;;;;;;;;;4904949;29;20474;-84
2022/11/19 09:13:32;;;;;;;19.13;10.18;;;;;;;;;;4911455;29;20573;-83
2022/11/19 09:15:58;;;;;;;17.55;9.73;;;;;;;;;;4915113;29;20036;-84
2022/11/19 09:18:23;;;;;;;16.92;9.63;;;;;;;;;;4910476;29;20357;-84
2022/11/19 09:20:53;;;;;;;20.73;9.95;;;;;;;;;;4899565;29;20051;-85
2022/11/19 09:23:18;;;;;;;19.10;10.45;;;;;;;;;;4909955;29;20103;-84
2022/11/19 09:25:44;;;;;;;17.10;10.35;;;;;;;;;;4911892;29;20123;-84
2022/11/19 09:28:10;;;;;;;16.67;9.70;;;;;;;;;;4916634;29;20047;-84
2022/11/19 09:30:35;;;;;;;17.00;9.55;;;;;;;;;;4913658;29;20024;-84
2022/11/19 09:33:00;;;;;;;17.58;9.60;;;;;;;;;;4911841;29;20064;-84
2022/11/19 09:35:26;;;;;;;16.90;9.50;;;;;;;;;;4920700;29;20035;-84
2022/11/19 09:37:51;;;;;;;19.33;9.98;;;;;;;;;;4914789;29;20415;-84
2022/11/19 09:40:20;;;;;;;18.77;9.50;;;;;;;;;;4918463;29;20130;-84
2022/11/19 09:43:19;;;;;;;15.60;9.27;;;;;;;;;;4915599;29;20095;-84
2022/11/19 09:46:01;;;;;;;16.30;8.60;;;;;;;;;;4897437;29;20029;-84
2022/11/19 09:48:33;;;;;;;18.42;9.75;;;;;;;;;;4895482;29;20477;-83
2022/11/19 09:51:11;;;;;;;18.33;9.18;;;;;;;;;;4911924;29;20058;-84
2022/11/19 09:53:46;;;;;;;15.93;8.68;;;;;;;;;;4906342;29;20477;-85
2022/11/19 09:56:49;;;;;;;17.38;9.43;;;;;;;;;;4910043;29;20032;-84
2022/11/19 09:59:26;;;;;;;17.08;9.70;;;;;;;;;;4884142;29;20749;-83
2022/11/19 10:02:11;;;;;;;16.17;8.50;;;;;;;;;;4918498;29;20422;-85
2022/11/19 10:04:37;;;;;;;17.67;8.65;;;;;;;;;;4903602;29;20375;-85
2022/11/19 10:07:14;;;;;;;16.92;9.45;;;;;;;;;;4913182;29;20032;-84
2022/11/19 10:09:45;;;;;;;17.35;9.32;;;;;;;;;;4914702;29;20043;-84
2022/11/19 10:12:26;;;;;;;17.23;9.02;;;;;;;;;;4917574;29;20040;-83
2022/11/19 10:15:07;;;;;;;16.33;9.38;;;;;;;;;;4901676;29;20040;-84
2022/11/19 10:17:59;;;;;;;15.95;8.57;;;;;;;;;;4919026;29;20047;-85
2022/11/19 10:20:57;;;;;;;13.98;8.25;;;;;;;;;;4911959;29;20020;-84
2022/11/19 10:23:44;;;;;;;14.23;8.15;;;;;;;;;;4899557;29;20035;-84
2022/11/19 10:26:16;;;;;;;17.45;8.57;;;;;;;;;;4911201;29;20028;-85
2022/11/19 10:32:27;;;;;;;18.00;9.10;;;;;;;;;;4914065;29;20046;-84
2022/11/19 10:34:57;;;;;;;15.48;8.38;;;;;;;;;;4903149;29;20126;-84
2022/11/19 10:37:27;;;;;;;15.23;8.68;;;;;;;;;;4892277;29;20481;-84
2022/11/19 10:40:07;;;;;;;15.20;7.90;;;;;;;;;;4911304;29;20060;-84
2022/11/19 10:42:39;;;;;;;13.52;7.72;;;;;;;;;;4887133;29;20442;-85
2022/11/19 10:45:18;;;;;;;15.65;8.40;;;;;;;;;;4904516;29;20043;-84
2022/11/19 10:48:06;;;;;;;14.98;8.25;;;;;;;;;;4909458;29;20098;-84
2022/11/19 10:50:38;;;;;;;14.95;7.88;;;;;;;;;;4913987;29;20132;-84
2022/11/19 10:53:28;;;;;;;14.90;7.68;;;;;;;;;;4912953;29;20122;-84
2022/11/19 10:56:03;;;;;;;13.70;7.18;;;;;;;;;;4908671;29;20032;-84
2022/11/19 10:58:35;;;;;;;15.48;7.25;;;;;;;;;;4902327;29;20024;-84
2022/11/19 11:01:03;;;;;;;14.43;7.80;;;;;;;;;;4906963;29;20501;-84
2022/11/19 11:03:48;;;;;;;12.27;7.55;;;;;;;;;;4902098;29;20024;-84
2022/11/19 11:06:16;;;;;;;13.95;6.85;;;;;;;;;;4909057;29;20039;-84
2022/11/19 11:08:50;;;;;;;12.82;7.45;;;;;;;;;;4909770;29;20080;-84
2022/11/19 11:17:31;;;;;;;17.02;8.30;;;;;;;;;;4906901;29;20081;-83
2022/11/19 11:19:57;;;;;;;15.18;7.35;;;;;;;;;;4906728;29;20363;-84
2022/11/19 11:22:23;;;;;;;16.02;7.85;;;;;;;;;;4912274;29;20079;-83
2022/11/19 11:24:48;;;;;;;13.93;8.07;;;;;;;;;;4917879;29;20039;-84
2022/11/19 11:27:27;;;;;;;12.55;7.13;;;;;;;;;;4918271;29;20111;-84
2022/11/19 11:30:16;;;;;;;12.95;7.40;;;;;;;;;;4910596;29;20036;-85
2022/11/19 11:32:42;;;;;;;13.82;7.22;;;;;;;;;;4906498;29;20035;-85
2022/11/19 11:35:30;;;;;;;12.90;7.10;;;;;;;;;;4901341;29;20032;-84
2022/11/19 11:37:56;;;;;;;15.10;6.65;;;;;;;;;;4908545;29;20035;-84
2022/11/19 11:40:22;;;;;;;13.43;7.45;;;;;;;;;;4911390;29;20048;-85
2022/11/19 11:42:49;;;;;;;14.25;7.13;;;;;;;;;;4915115;29;20503;-85
2022/11/19 11:45:32;;;;;;;14.02;7.13;;;;;;;;;;4905567;29;20027;-84
2022/11/19 11:48:06;;;;;;;12.23;6.78;;;;;;;;;;4917114;29;20157;-84
2022/11/19 11:50:32;;;;;;;13.20;7.20;;;;;;;;;;4906411;29;20180;-84
2022/11/19 11:52:57;;;;;;;11.73;6.97;;;;;;;;;;4902084;29;20507;-84
2022/11/19 11:55:22;;;;;;;12.52;6.78;;;;;;;;;;4911434;29;20031;-84
2022/11/19 11:57:59;;;;;;;12.30;6.95;;;;;;;;;;4896401;29;20050;-84
2022/11/19 12:00:30;;;;;;;11.35;6.43;;;;;;;;;;4913749;29;20102;-84
2022/11/19 12:03:08;;;;;;;10.98;6.78;;;;;;;;;;4914864;29;20035;-84
2022/11/19 12:05:59;;;;;;;13.90;7.60;;;;;;;;;;4898056;29;20028;-84
2022/11/19 12:08:55;;;;;;;13.07;7.55;;;;;;;;;;4912565;29;20028;-84
2022/11/19 12:11:56;;;;;;;11.02;6.13;;;;;;;;;;4912176;29;20115;-84
2022/11/19 12:14:50;;;;;;;12.57;6.57;;;;;;;;;;4898318;29;20507;-84
2022/11/19 12:17:34;;;;;;;11.40;6.50;;;;;;;;;;4910484;29;20032;-84
2022/11/19 12:19:59;;;;;;;12.73;6.55;;;;;;;;;;4911457;29;20063;-84
2022/11/19 12:22:48;;;;;;;11.27;6.38;;;;;;;;;;4898192;29;20133;-85
2022/11/19 12:25:32;;;;;;;10.90;6.40;;;;;;;;;;4901779;29;20032;-85
2022/11/19 12:28:16;;;;;;;10.65;5.82;;;;;;;;;;4905374;29;20408;-85
2022/11/19 12:31:02;;;;;;;11.85;6.35;;;;;;;;;;4895004;29;20163;-85
2022/11/19 12:33:57;;;;;;;11.73;6.40;;;;;;;;;;4886654;29;20529;-85
2022/11/19 12:36:34;;;;;;;11.40;6.32;;;;;;;;;;4871473;29;20277;-85
2022/11/19 12:39:18;;;;;;;13.10;6.20;;;;;;;;;;4899752;29;20447;-84
2022/11/19 12:42:03;;;;;;;11.73;6.50;;;;;;;;;;4896195;29;20028;-85
2022/11/19 12:44:55;;;;;;;11.50;5.90;;;;;;;;;;4898758;29;20028;-85
2022/11/19 12:47:33;;;;;;;11.73;6.60;;;;;;;;;;4888603;29;20036;-85
2022/11/19 12:50:26;;;;;;;12.07;6.40;;;;;;;;;;4889818;29;20059;-86
2022/11/19 12:53:01;;;;;;;11.45;6.15;;;;;;;;;;4900807;29;20028;-84
2022/11/19 12:55:38;;;;;;;10.32;6.30;;;;;;;;;;4900377;29;20489;-85
2022/11/19 12:58:26;;;;;;;11.52;6.38;;;;;;;;;;4900953;29;20544;-85
2022/11/19 13:00:57;;;;;;;11.90;6.35;;;;;;;;;;4899974;29;20593;-86
2022/11/19 13:03:57;;;;;;;11.73;5.63;;;;;;;;;;4898994;29;20056;-85
2022/11/19 13:06:41;;;;;;;10.60;5.80;;;;;;;;;;4881868;29;20028;-85
2022/11/19 13:09:26;;;;;;;9.90;5.80;;;;;;;;;;4894204;29;20042;-86
2022/11/19 13:11:58;;;;;;;11.93;6.07;;;;;;;;;;4883559;29;20040;-85
2022/11/19 13:14:39;;;;;;;10.32;6.22;;;;;;;;;;4905823;29;20369;-85
2022/11/19 13:17:16;;;;;;;11.32;6.22;;;;;;;;;;4902229;29;20139;-85
2022/11/19 13:19:44;;;;;;;12.07;6.85;;;;;;;;;;4901194;29;20032;-85
2022/11/19 13:22:20;;;;;;;11.73;5.72;;;;;;;;;;4900888;29;20031;-85
2022/11/19 13:24:56;;;;;;;10.07;5.57;;;;;;;;;;4902621;29;20034;-85
2022/11/19 13:27:24;;;;;;;14.25;6.00;;;;;;;;;;4903264;29;20044;-85
2022/11/19 13:30:03;;;;;;;10.43;6.35;;;;;;;;;;4899549;29;20028;-85
2022/11/19 13:32:39;;;;;;;10.90;5.82;;;;;;;;;;4901590;29;20428;-85
2022/11/19 13:35:40;;;;;;;10.20;5.88;;;;;;;;;;4905667;29;20059;-85
2022/11/19 13:38:33;;;;;;;10.68;5.88;;;;;;;;;;4876458;29;20565;-85
2022/11/19 13:41:11;;;;;;;10.45;5.78;;;;;;;;;;4902454;29;20037;-85
2022/11/19 13:46:42;;;;;;;9.32;5.80;;;;;;;;;;4907212;29;20070;-85
2022/11/19 13:49:16;;;;;;;10.20;5.57;;;;;;;;;;4886931;29;20442;-85
2022/11/19 13:51:46;;;;;;;11.65;5.72;;;;;;;;;;4887885;29;20452;-85
2022/11/19 13:54:22;;;;;;;12.45;6.20;;;;;;;;;;4886349;29;20497;-86
2022/11/19 13:56:49;;;;;;;11.27;6.00;;;;;;;;;;4905737;29;20472;-85
2022/11/19 13:59:35;;;;;;;10.25;6.05;;;;;;;;;;4895101;29;20024;-84
2022/11/19 14:02:29;;;;;;;10.60;5.88;;;;;;;;;;4899590;29;20098;-86
2022/11/19 14:05:26;;;;;;;11.07;5.65;;;;;;;;;;4901543;29;20032;-84
2022/11/19 14:08:06;;;;;;;8.45;4.75;;;;;;;;;;4905553;29;21289;-84
2022/11/19 14:10:44;;;;;;;9.98;5.78;;;;;;;;;;4905585;29;20126;-84
2022/11/19 14:13:24;;;;;;;11.50;5.93;;;;;;;;;;4905112;29;20389;-86
2022/11/19 14:27:28;;;;;;;8.52;5.10;;;;;;;;;;4906376;29;20523;-85
2022/11/19 14:30:14;;;;;;;9.98;5.35;;;;;;;;;;4890872;29;20028;-86
2022/11/19 14:32:43;;;;;;;9.23;5.53;;;;;;;;;;4904937;29;20052;-85
2022/11/19 14:35:17;;;;;;;10.13;5.70;;;;;;;;;;4904392;29;20038;-85
2022/11/19 14:37:46;;;;;;;9.52;5.60;;;;;;;;;;4905872;29;20031;-85
2022/11/19 14:40:12;;;;;;;9.60;5.43;;;;;;;;;;4890784;29;20194;-85
2022/11/19 14:46:02;;;;;;;8.98;5.47;;;;;;;;;;4907242;29;20400;-85
2022/11/19 14:48:34;;;;;;;9.00;5.38;;;;;;;;;;4904631;29;20056;-86
2022/11/19 14:51:10;;;;;;;8.73;4.63;;;;;;;;;;4887133;29;20385;-85
2022/11/19 14:53:45;;;;;;;11.13;5.28;;;;;;;;;;4907098;29;20491;-84
2022/11/19 14:56:13;;;;;;;11.30;6.40;;;;;;;;;;4912552;29;20068;-83
2022/11/19 14:58:48;;;;;;;10.30;5.68;;;;;;;;;;4895338;29;20036;-86
2022/11/19 15:01:17;;;;;;;11.35;6.40;;;;;;;;;;4895919;29;20039;-86
2022/11/19 15:04:00;;;;;;;9.95;6.00;;;;;;;;;;4910634;29;20024;-85
2022/11/19 15:06:27;;;;;;;12.90;6.15;;;;;;;;;;4910654;29;20480;-86
2022/11/19 15:08:57;;;;;;;11.32;6.10;;;;;;;;;;4912765;29;20040;-85
2022/11/19 15:11:43;;;;;;;12.57;6.32;;;;;;;;;;4917965;29;20441;-85
2022/11/19 15:14:30;;;;;;;11.05;5.68;;;;;;;;;;4911147;29;20499;-86
2022/11/19 15:16:59;;;;;;;10.98;5.68;;;;;;;;;;4910183;29;20036;-85
2022/11/19 15:19:36;;;;;;;11.73;5.88;;;;;;;;;;4909422;29;20516;-85
2022/11/19 15:22:21;;;;;;;10.75;5.70;;;;;;;;;;4909944;29;20034;-85
2022/11/19 15:25:00;;;;;;;8.77;5.03;;;;;;;;;;4910980;29;20449;-85
2022/11/19 15:28:00;;;;;;;10.23;5.55;;;;;;;;;;4911371;29;20389;-85
2022/11/19 15:30:49;;;;;;;8.57;4.85;;;;;;;;;;4914515;29;20069;-86
2022/11/19 15:33:55;;;;;;;10.40;5.10;;;;;;;;;;4909862;29;20480;-85
2022/11/19 15:36:33;;;;;;;9.20;5.47;;;;;;;;;;4910644;29;20119;-86